sensor_id;sensor_type;location;lat;lon;timestamp;temperature;humidity
47338;DHT22;33069;51.970;5.892;2022-12-07T00:00:55;5.20;87.30
47338;DHT22;33069;51.970;5.892;2022-12-07T00:03:21;5.10;86.90
47338;DHT22;33069;51.970;5.892;2022-12-07T00:05:47;5.10;86.50
47338;DHT22;33069;51.970;5.892;2022-12-07T00:08:32;4.90;86.40
47338;DHT22;33069;51.970;5.892;2022-12-07T00:11:06;5.00;86.60
47338;DHT22;33069;51.970;5.892;2022-12-07T00:13:33;4.80;86.30
47338;DHT22;33069;51.970;5.892;2022-12-07T00:18:32;4.80;86.60
47338;DHT22;33069;51.970;5.892;2022-12-07T00:21:24;4.60;86.70
47338;DHT22;33069;51.970;5.892;2022-12-07T00:23:51;4.80;87.00
47338;DHT22;33069;51.970;5.892;2022-12-07T00:26:21;4.70;86.80
47338;DHT22;33069;51.970;5.892;2022-12-07T00:28:52;4.60;87.00
47338;DHT22;33069;51.970;5.892;2022-12-07T00:31:20;4.30;87.00
47338;DHT22;33069;51.970;5.892;2022-12-07T00:33:46;4.50;87.40
47338;DHT22;33069;51.970;5.892;2022-12-07T00:36:14;4.40;87.30
47338;DHT22;33069;51.970;5.892;2022-12-07T00:38:41;4.40;87.40
47338;DHT22;33069;51.970;5.892;2022-12-07T00:41:12;4.40;87.40
47338;DHT22;33069;51.970;5.892;2022-12-07T00:43:38;4.30;87.30
47338;DHT22;33069;51.970;5.892;2022-12-07T00:46:05;4.40;87.40
47338;DHT22;33069;51.970;5.892;2022-12-07T00:48:30;4.30;87.20
47338;DHT22;33069;51.970;5.892;2022-12-07T00:50:57;4.50;87.30
47338;DHT22;33069;51.970;5.892;2022-12-07T00:53:22;4.50;87.00
47338;DHT22;33069;51.970;5.892;2022-12-07T00:55:48;4.40;87.00
47338;DHT22;33069;51.970;5.892;2022-12-07T00:58:14;4.50;87.30
47338;DHT22;33069;51.970;5.892;2022-12-07T01:00:42;4.40;87.30
47338;DHT22;33069;51.970;5.892;2022-12-07T01:03:10;4.40;87.30
47338;DHT22;33069;51.970;5.892;2022-12-07T01:05:37;4.40;87.10
47338;DHT22;33069;51.970;5.892;2022-12-07T01:08:02;4.40;87.00
47338;DHT22;33069;51.970;5.892;2022-12-07T01:10:29;4.30;86.90
47338;DHT22;33069;51.970;5.892;2022-12-07T01:12:56;4.30;87.00
47338;DHT22;33069;51.970;5.892;2022-12-07T01:15:28;4.30;87.10
47338;DHT22;33069;51.970;5.892;2022-12-07T01:17:54;4.00;87.00
47338;DHT22;33069;51.970;5.892;2022-12-07T01:20:20;4.20;87.40
47338;DHT22;33069;51.970;5.892;2022-12-07T01:22:45;4.20;87.20
47338;DHT22;33069;51.970;5.892;2022-12-07T01:25:11;4.00;87.20
47338;DHT22;33069;51.970;5.892;2022-12-07T01:27:37;4.20;87.40
47338;DHT22;33069;51.970;5.892;2022-12-07T01:30:05;4.00;87.30
47338;DHT22;33069;51.970;5.892;2022-12-07T01:32:32;4.10;87.40
47338;DHT22;33069;51.970;5.892;2022-12-07T01:34:58;4.10;87.30
47338;DHT22;33069;51.970;5.892;2022-12-07T01:40:26;4.10;87.40
47338;DHT22;33069;51.970;5.892;2022-12-07T01:42:52;4.00;87.10
47338;DHT22;33069;51.970;5.892;2022-12-07T01:47:48;4.00;86.90
47338;DHT22;33069;51.970;5.892;2022-12-07T01:50:15;4.00;86.90
47338;DHT22;33069;51.970;5.892;2022-12-07T01:52:41;3.70;86.70
47338;DHT22;33069;51.970;5.892;2022-12-07T01:55:12;4.00;87.20
47338;DHT22;33069;51.970;5.892;2022-12-07T01:57:41;3.90;87.00
47338;DHT22;33069;51.970;5.892;2022-12-07T02:00:11;3.80;87.00
47338;DHT22;33069;51.970;5.892;2022-12-07T02:02:39;3.80;87.10
47338;DHT22;33069;51.970;5.892;2022-12-07T02:05:07;3.90;87.10
47338;DHT22;33069;51.970;5.892;2022-12-07T02:07:36;3.70;87.00
47338;DHT22;33069;51.970;5.892;2022-12-07T02:10:17;3.50;86.90
47338;DHT22;33069;51.970;5.892;2022-12-07T02:12:45;3.70;87.20
47338;DHT22;33069;51.970;5.892;2022-12-07T02:15:12;3.60;87.10
47338;DHT22;33069;51.970;5.892;2022-12-07T02:20:37;3.70;87.40
47338;DHT22;33069;51.970;5.892;2022-12-07T02:29:21;3.30;87.20
47338;DHT22;33069;51.970;5.892;2022-12-07T02:31:59;3.20;87.40
47338;DHT22;33069;51.970;5.892;2022-12-07T02:34:50;3.30;87.70
47338;DHT22;33069;51.970;5.892;2022-12-07T02:37:28;3.10;87.80
47338;DHT22;33069;51.970;5.892;2022-12-07T02:40:50;3.10;88.00
47338;DHT22;33069;51.970;5.892;2022-12-07T02:42:58;3.30;88.10
47338;DHT22;33069;51.970;5.892;2022-12-07T02:45:27;3.30;88.00
47338;DHT22;33069;51.970;5.892;2022-12-07T02:47:56;3.30;87.80
47338;DHT22;33069;51.970;5.892;2022-12-07T02:50:24;3.40;87.70
47338;DHT22;33069;51.970;5.892;2022-12-07T02:52:50;3.30;87.60
47338;DHT22;33069;51.970;5.892;2022-12-07T02:55:18;3.40;87.70
47338;DHT22;33069;51.970;5.892;2022-12-07T03:00:59;3.40;87.40
47338;DHT22;33069;51.970;5.892;2022-12-07T03:03:29;3.20;87.40
47338;DHT22;33069;51.970;5.892;2022-12-07T03:08:51;3.30;87.50
47338;DHT22;33069;51.970;5.892;2022-12-07T03:13:59;3.40;87.60
47338;DHT22;33069;51.970;5.892;2022-12-07T03:17:02;3.30;87.50
47338;DHT22;33069;51.970;5.892;2022-12-07T03:19:21;3.40;87.80
47338;DHT22;33069;51.970;5.892;2022-12-07T03:22:00;3.30;87.70
47338;DHT22;33069;51.970;5.892;2022-12-07T03:27:54;3.40;88.10
47338;DHT22;33069;51.970;5.892;2022-12-07T03:30:50;3.60;88.10
47338;DHT22;33069;51.970;5.892;2022-12-07T03:33:21;3.60;88.10
47338;DHT22;33069;51.970;5.892;2022-12-07T03:36:33;3.60;88.00
47338;DHT22;33069;51.970;5.892;2022-12-07T03:38:49;3.70;88.00
47338;DHT22;33069;51.970;5.892;2022-12-07T03:41:47;3.80;87.90
47338;DHT22;33069;51.970;5.892;2022-12-07T03:44:15;3.80;87.70
47338;DHT22;33069;51.970;5.892;2022-12-07T03:49:50;3.80;87.30
47338;DHT22;33069;51.970;5.892;2022-12-07T03:57:21;3.80;87.40
47338;DHT22;33069;51.970;5.892;2022-12-07T03:59:48;3.70;87.20
47338;DHT22;33069;51.970;5.892;2022-12-07T04:02:15;3.70;87.40
47338;DHT22;33069;51.970;5.892;2022-12-07T04:04:41;3.70;87.30
47338;DHT22;33069;51.970;5.892;2022-12-07T04:07:07;3.70;87.40
47338;DHT22;33069;51.970;5.892;2022-12-07T04:09:33;3.80;87.40
47338;DHT22;33069;51.970;5.892;2022-12-07T04:11:59;3.70;87.10
47338;DHT22;33069;51.970;5.892;2022-12-07T04:14:24;3.80;87.10
47338;DHT22;33069;51.970;5.892;2022-12-07T04:16:56;3.70;87.00
47338;DHT22;33069;51.970;5.892;2022-12-07T04:19:30;3.70;87.00
47338;DHT22;33069;51.970;5.892;2022-12-07T04:21:58;3.80;86.90
47338;DHT22;33069;51.970;5.892;2022-12-07T04:24:33;3.80;86.90
47338;DHT22;33069;51.970;5.892;2022-12-07T04:26:59;3.70;86.60
47338;DHT22;33069;51.970;5.892;2022-12-07T04:29:25;3.80;86.70
47338;DHT22;33069;51.970;5.892;2022-12-07T04:31:52;3.80;86.40
47338;DHT22;33069;51.970;5.892;2022-12-07T04:34:18;3.80;86.40
47338;DHT22;33069;51.970;5.892;2022-12-07T04:36:44;3.80;86.40
47338;DHT22;33069;51.970;5.892;2022-12-07T04:39:24;3.70;86.50
47338;DHT22;33069;51.970;5.892;2022-12-07T04:41:50;3.20;86.50
47338;DHT22;33069;51.970;5.892;2022-12-07T04:44:17;3.60;87.40
47338;DHT22;33069;51.970;5.892;2022-12-07T04:46:43;3.50;87.50
47338;DHT22;33069;51.970;5.892;2022-12-07T04:49:10;3.30;87.60
47338;DHT22;33069;51.970;5.892;2022-12-07T04:51:36;3.50;87.90
47338;DHT22;33069;51.970;5.892;2022-12-07T04:54:02;3.60;88.10
47338;DHT22;33069;51.970;5.892;2022-12-07T04:56:28;3.80;88.00
47338;DHT22;33069;51.970;5.892;2022-12-07T04:58:54;3.80;87.60
47338;DHT22;33069;51.970;5.892;2022-12-07T05:01:21;3.50;87.20
47338;DHT22;33069;51.970;5.892;2022-12-07T05:03:47;3.50;87.40
47338;DHT22;33069;51.970;5.892;2022-12-07T05:06:13;3.50;87.40
47338;DHT22;33069;51.970;5.892;2022-12-07T05:08:39;3.60;87.40
47338;DHT22;33069;51.970;5.892;2022-12-07T05:11:06;3.70;87.40
47338;DHT22;33069;51.970;5.892;2022-12-07T05:13:33;3.70;87.20
47338;DHT22;33069;51.970;5.892;2022-12-07T05:15:59;3.80;87.00
47338;DHT22;33069;51.970;5.892;2022-12-07T05:18:25;3.70;86.90
47338;DHT22;33069;51.970;5.892;2022-12-07T05:20:51;3.70;86.90
47338;DHT22;33069;51.970;5.892;2022-12-07T05:23:17;3.50;86.60
47338;DHT22;33069;51.970;5.892;2022-12-07T05:25:43;3.30;86.70
47338;DHT22;33069;51.970;5.892;2022-12-07T05:28:09;3.30;87.00
47338;DHT22;33069;51.970;5.892;2022-12-07T05:30:35;3.10;87.10
47338;DHT22;33069;51.970;5.892;2022-12-07T05:33:01;3.30;87.50
47338;DHT22;33069;51.970;5.892;2022-12-07T05:35:28;3.40;87.70
47338;DHT22;33069;51.970;5.892;2022-12-07T05:37:55;3.40;87.70
47338;DHT22;33069;51.970;5.892;2022-12-07T05:43:51;3.60;87.60
47338;DHT22;33069;51.970;5.892;2022-12-07T05:46:16;3.30;87.30
47338;DHT22;33069;51.970;5.892;2022-12-07T05:48:42;3.40;87.50
47338;DHT22;33069;51.970;5.892;2022-12-07T05:51:08;3.40;87.60
47338;DHT22;33069;51.970;5.892;2022-12-07T05:53:33;3.60;87.70
47338;DHT22;33069;51.970;5.892;2022-12-07T05:55:59;3.70;87.40
47338;DHT22;33069;51.970;5.892;2022-12-07T05:58:25;3.50;87.20
47338;DHT22;33069;51.970;5.892;2022-12-07T06:01:09;3.50;87.20
47338;DHT22;33069;51.970;5.892;2022-12-07T06:03:59;3.40;87.20
47338;DHT22;33069;51.970;5.892;2022-12-07T06:06:25;3.20;87.30
47338;DHT22;33069;51.970;5.892;2022-12-07T06:08:51;3.40;87.70
47338;DHT22;33069;51.970;5.892;2022-12-07T06:11:16;3.40;87.70
47338;DHT22;33069;51.970;5.892;2022-12-07T06:14:00;3.50;87.60
47338;DHT22;33069;51.970;5.892;2022-12-07T06:16:26;3.40;87.20
47338;DHT22;33069;51.970;5.892;2022-12-07T06:18:52;3.50;87.20
47338;DHT22;33069;51.970;5.892;2022-12-07T06:21:18;3.50;87.00
47338;DHT22;33069;51.970;5.892;2022-12-07T06:23:43;3.50;86.90
47338;DHT22;33069;51.970;5.892;2022-12-07T06:26:09;3.60;86.80
47338;DHT22;33069;51.970;5.892;2022-12-07T06:28:35;3.50;86.70
47338;DHT22;33069;51.970;5.892;2022-12-07T06:31:01;3.50;86.70
47338;DHT22;33069;51.970;5.892;2022-12-07T06:33:28;3.30;86.60
47338;DHT22;33069;51.970;5.892;2022-12-07T06:35:54;3.20;86.80
47338;DHT22;33069;51.970;5.892;2022-12-07T06:38:20;3.40;87.20
47338;DHT22;33069;51.970;5.892;2022-12-07T06:41:08;3.30;87.10
47338;DHT22;33069;51.970;5.892;2022-12-07T06:43:33;3.30;87.10
47338;DHT22;33069;51.970;5.892;2022-12-07T06:45:59;3.40;87.20
47338;DHT22;33069;51.970;5.892;2022-12-07T06:48:25;3.30;87.00
47338;DHT22;33069;51.970;5.892;2022-12-07T06:50:50;3.40;87.00
47338;DHT22;33069;51.970;5.892;2022-12-07T06:53:16;3.40;86.90
47338;DHT22;33069;51.970;5.892;2022-12-07T06:55:42;3.20;86.80
47338;DHT22;33069;51.970;5.892;2022-12-07T06:58:08;3.20;87.00
47338;DHT22;33069;51.970;5.892;2022-12-07T07:00:33;3.10;87.10
47338;DHT22;33069;51.970;5.892;2022-12-07T07:06:29;3.30;87.30
47338;DHT22;33069;51.970;5.892;2022-12-07T07:08:55;3.30;87.10
47338;DHT22;33069;51.970;5.892;2022-12-07T07:11:20;3.30;87.10
47338;DHT22;33069;51.970;5.892;2022-12-07T07:13:46;3.50;87.20
47338;DHT22;33069;51.970;5.892;2022-12-07T07:16:12;3.50;86.80
47338;DHT22;33069;51.970;5.892;2022-12-07T07:22:07;3.50;86.30
47338;DHT22;33069;51.970;5.892;2022-12-07T07:24:33;3.50;86.50
47338;DHT22;33069;51.970;5.892;2022-12-07T07:26:58;3.40;86.40
47338;DHT22;33069;51.970;5.892;2022-12-07T07:29:24;3.40;86.40
47338;DHT22;33069;51.970;5.892;2022-12-07T07:31:50;3.40;86.40
47338;DHT22;33069;51.970;5.892;2022-12-07T07:34:15;3.40;86.50
47338;DHT22;33069;51.970;5.892;2022-12-07T07:36:41;3.50;86.40
47338;DHT22;33069;51.970;5.892;2022-12-07T07:39:07;3.40;86.30
47338;DHT22;33069;51.970;5.892;2022-12-07T07:41:32;3.30;86.30
47338;DHT22;33069;51.970;5.892;2022-12-07T07:43:58;3.10;86.30
47338;DHT22;33069;51.970;5.892;2022-12-07T07:46:24;3.30;86.80
47338;DHT22;33069;51.970;5.892;2022-12-07T07:48:49;3.30;86.80
47338;DHT22;33069;51.970;5.892;2022-12-07T07:51:15;3.50;86.80
47338;DHT22;33069;51.970;5.892;2022-12-07T07:53:40;3.50;86.40
47338;DHT22;33069;51.970;5.892;2022-12-07T07:56:06;3.50;86.30
47338;DHT22;33069;51.970;5.892;2022-12-07T07:58:32;3.40;86.40
47338;DHT22;33069;51.970;5.892;2022-12-07T08:01:04;3.40;86.50
47338;DHT22;33069;51.970;5.892;2022-12-07T08:03:30;3.60;86.60
47338;DHT22;33069;51.970;5.892;2022-12-07T08:05:55;3.50;86.30
47338;DHT22;33069;51.970;5.892;2022-12-07T08:08:21;3.40;86.30
47338;DHT22;33069;51.970;5.892;2022-12-07T08:10:47;3.50;86.40
47338;DHT22;33069;51.970;5.892;2022-12-07T08:13:15;3.50;86.20
47338;DHT22;33069;51.970;5.892;2022-12-07T08:15:43;3.50;86.30
47338;DHT22;33069;51.970;5.892;2022-12-07T08:18:10;3.50;86.40
47338;DHT22;33069;51.970;5.892;2022-12-07T08:20:37;3.60;86.50
47338;DHT22;33069;51.970;5.892;2022-12-07T08:23:03;3.70;86.50
47338;DHT22;33069;51.970;5.892;2022-12-07T08:25:30;3.70;86.30
47338;DHT22;33069;51.970;5.892;2022-12-07T08:27:56;3.70;86.30
47338;DHT22;33069;51.970;5.892;2022-12-07T08:30:22;3.50;86.30
47338;DHT22;33069;51.970;5.892;2022-12-07T08:32:48;3.30;86.60
47338;DHT22;33069;51.970;5.892;2022-12-07T08:35:14;3.40;87.30
47338;DHT22;33069;51.970;5.892;2022-12-07T08:37:40;3.50;87.60
47338;DHT22;33069;51.970;5.892;2022-12-07T08:40:08;3.60;87.60
47338;DHT22;33069;51.970;5.892;2022-12-07T08:42:34;3.50;87.60
47338;DHT22;33069;51.970;5.892;2022-12-07T08:45:07;3.70;87.80
47338;DHT22;33069;51.970;5.892;2022-12-07T08:47:57;3.70;87.80
47338;DHT22;33069;51.970;5.892;2022-12-07T08:50:21;3.70;87.80
47338;DHT22;33069;51.970;5.892;2022-12-07T08:52:53;3.80;87.70
47338;DHT22;33069;51.970;5.892;2022-12-07T08:55:20;4.20;87.60
47338;DHT22;33069;51.970;5.892;2022-12-07T08:57:46;3.70;86.80
47338;DHT22;33069;51.970;5.892;2022-12-07T09:00:13;3.70;87.00
47338;DHT22;33069;51.970;5.892;2022-12-07T09:05:57;4.00;87.40
47338;DHT22;33069;51.970;5.892;2022-12-07T09:08:26;4.20;87.20
47338;DHT22;33069;51.970;5.892;2022-12-07T09:10:54;4.10;86.60
47338;DHT22;33069;51.970;5.892;2022-12-07T09:13:20;4.00;86.40
47338;DHT22;33069;51.970;5.892;2022-12-07T09:15:45;4.10;86.70
47338;DHT22;33069;51.970;5.892;2022-12-07T09:21:19;4.30;86.70
47338;DHT22;33069;51.970;5.892;2022-12-07T09:23:45;4.60;86.60
47338;DHT22;33069;51.970;5.892;2022-12-07T09:26:11;4.40;85.70
47338;DHT22;33069;51.970;5.892;2022-12-07T09:28:37;4.60;85.70
47338;DHT22;33069;51.970;5.892;2022-12-07T09:31:04;4.30;85.80
47338;DHT22;33069;51.970;5.892;2022-12-07T09:33:29;4.20;86.30
47338;DHT22;33069;51.970;5.892;2022-12-07T09:35:55;4.70;86.80
47338;DHT22;33069;51.970;5.892;2022-12-07T09:38:21;4.80;85.90
47338;DHT22;33069;51.970;5.892;2022-12-07T09:40:47;4.60;85.30
47338;DHT22;33069;51.970;5.892;2022-12-07T09:43:24;4.70;85.60
47338;DHT22;33069;51.970;5.892;2022-12-07T09:45:52;4.90;85.30
47338;DHT22;33069;51.970;5.892;2022-12-07T09:48:21;4.70;85.00
47338;DHT22;33069;51.970;5.892;2022-12-07T09:50:48;4.90;84.90
47338;DHT22;33069;51.970;5.892;2022-12-07T09:53:29;4.80;84.70
47338;DHT22;33069;51.970;5.892;2022-12-07T09:55:55;5.30;84.60
47338;DHT22;33069;51.970;5.892;2022-12-07T09:58:27;5.20;83.40
47338;DHT22;33069;51.970;5.892;2022-12-07T10:00:57;5.10;83.60
47338;DHT22;33069;51.970;5.892;2022-12-07T10:03:25;4.80;84.10
47338;DHT22;33069;51.970;5.892;2022-12-07T10:05:52;4.80;84.60
47338;DHT22;33069;51.970;5.892;2022-12-07T10:08:19;5.00;84.50
47338;DHT22;33069;51.970;5.892;2022-12-07T10:10:46;4.70;84.30
47338;DHT22;33069;51.970;5.892;2022-12-07T10:13:17;4.80;85.10
47338;DHT22;33069;51.970;5.892;2022-12-07T10:15:56;4.90;84.90
47338;DHT22;33069;51.970;5.892;2022-12-07T10:18:37;4.70;84.90
47338;DHT22;33069;51.970;5.892;2022-12-07T10:21:12;4.80;85.30
47338;DHT22;33069;51.970;5.892;2022-12-07T10:24:01;4.80;85.00
47338;DHT22;33069;51.970;5.892;2022-12-07T10:29:04;5.00;84.70
47338;DHT22;33069;51.970;5.892;2022-12-07T10:31:39;5.10;84.40
47338;DHT22;33069;51.970;5.892;2022-12-07T10:34:24;5.20;84.40
47338;DHT22;33069;51.970;5.892;2022-12-07T10:36:52;5.00;84.00
47338;DHT22;33069;51.970;5.892;2022-12-07T10:39:20;5.10;84.30
47338;DHT22;33069;51.970;5.892;2022-12-07T10:41:54;5.00;84.00
47338;DHT22;33069;51.970;5.892;2022-12-07T10:44:23;5.00;84.80
47338;DHT22;33069;51.970;5.892;2022-12-07T11:00:25;5.90;82.70
47338;DHT22;33069;51.970;5.892;2022-12-07T11:03:23;6.10;81.30
47338;DHT22;33069;51.970;5.892;2022-12-07T11:14:31;5.70;81.90
47338;DHT22;33069;51.970;5.892;2022-12-07T11:17:10;6.00;79.90
47338;DHT22;33069;51.970;5.892;2022-12-07T11:22:29;5.80;82.10
47338;DHT22;33069;51.970;5.892;2022-12-07T11:31:02;5.70;81.80
47338;DHT22;33069;51.970;5.892;2022-12-07T11:33:44;6.10;81.40
47338;DHT22;33069;51.970;5.892;2022-12-07T11:36:35;6.20;80.60
47338;DHT22;33069;51.970;5.892;2022-12-07T11:41:50;6.00;81.60
47338;DHT22;33069;51.970;5.892;2022-12-07T11:47:40;6.20;80.90
47338;DHT22;33069;51.970;5.892;2022-12-07T11:53:17;6.10;80.90
47338;DHT22;33069;51.970;5.892;2022-12-07T12:01:26;6.60;78.70
47338;DHT22;33069;51.970;5.892;2022-12-07T12:04:01;6.40;79.50
47338;DHT22;33069;51.970;5.892;2022-12-07T12:06:27;6.40;78.70
47338;DHT22;33069;51.970;5.892;2022-12-07T12:19:38;6.10;79.30
47338;DHT22;33069;51.970;5.892;2022-12-07T12:22:18;6.10;79.50
47338;DHT22;33069;51.970;5.892;2022-12-07T12:24:49;6.00;79.20
47338;DHT22;33069;51.970;5.892;2022-12-07T12:27:25;6.00;80.00
47338;DHT22;33069;51.970;5.892;2022-12-07T12:29:55;6.40;79.50
47338;DHT22;33069;51.970;5.892;2022-12-07T12:32:30;6.20;79.10
47338;DHT22;33069;51.970;5.892;2022-12-07T12:42:53;6.50;79.50
47338;DHT22;33069;51.970;5.892;2022-12-07T12:45:23;6.50;79.40
47338;DHT22;33069;51.970;5.892;2022-12-07T12:48:29;6.80;79.20
47338;DHT22;33069;51.970;5.892;2022-12-07T12:54:21;6.90;77.60
47338;DHT22;33069;51.970;5.892;2022-12-07T12:57:12;6.80;77.60
47338;DHT22;33069;51.970;5.892;2022-12-07T13:05:16;6.20;79.10
47338;DHT22;33069;51.970;5.892;2022-12-07T13:20:59;6.80;78.50
47338;DHT22;33069;51.970;5.892;2022-12-07T13:26:23;6.70;78.40
47338;DHT22;33069;51.970;5.892;2022-12-07T13:34:33;6.60;79.20
47338;DHT22;33069;51.970;5.892;2022-12-07T13:37:11;7.00;79.10
47338;DHT22;33069;51.970;5.892;2022-12-07T13:39:50;7.20;77.30
47338;DHT22;33069;51.970;5.892;2022-12-07T13:42:24;7.00;78.20
47338;DHT22;33069;51.970;5.892;2022-12-07T13:44:52;6.90;78.30
47338;DHT22;33069;51.970;5.892;2022-12-07T13:47:20;7.20;76.70
47338;DHT22;33069;51.970;5.892;2022-12-07T13:49:53;7.00;77.60
47338;DHT22;33069;51.970;5.892;2022-12-07T13:52:30;6.90;77.20
47338;DHT22;33069;51.970;5.892;2022-12-07T13:57:28;7.20;75.40
47338;DHT22;33069;51.970;5.892;2022-12-07T13:59:56;7.20;76.00
47338;DHT22;33069;51.970;5.892;2022-12-07T14:06:14;7.30;75.00
47338;DHT22;33069;51.970;5.892;2022-12-07T14:08:43;7.20;76.00
47338;DHT22;33069;51.970;5.892;2022-12-07T14:11:17;7.00;76.50
47338;DHT22;33069;51.970;5.892;2022-12-07T14:13:51;6.70;77.40
47338;DHT22;33069;51.970;5.892;2022-12-07T14:18:59;6.80;77.50
47338;DHT22;33069;51.970;5.892;2022-12-07T14:21:28;6.80;76.90
47338;DHT22;33069;51.970;5.892;2022-12-07T14:26:34;5.40;80.20
47338;DHT22;33069;51.970;5.892;2022-12-07T14:29:19;5.20;80.90
47338;DHT22;33069;51.970;5.892;2022-12-07T14:31:45;5.20;81.30
47338;DHT22;33069;51.970;5.892;2022-12-07T14:34:14;5.30;81.60
47338;DHT22;33069;51.970;5.892;2022-12-07T14:36:39;5.50;81.30
47338;DHT22;33069;51.970;5.892;2022-12-07T14:39:05;5.70;80.30
47338;DHT22;33069;51.970;5.892;2022-12-07T14:45:00;5.90;79.40
47338;DHT22;33069;51.970;5.892;2022-12-07T14:47:26;6.10;79.60
47338;DHT22;33069;51.970;5.892;2022-12-07T14:49:52;6.00;78.90
47338;DHT22;33069;51.970;5.892;2022-12-07T14:52:21;6.20;80.20
47338;DHT22;33069;51.970;5.892;2022-12-07T14:54:48;6.00;79.20
47338;DHT22;33069;51.970;5.892;2022-12-07T14:57:14;6.40;78.70
47338;DHT22;33069;51.970;5.892;2022-12-07T14:59:39;6.00;79.10
47338;DHT22;33069;51.970;5.892;2022-12-07T15:02:06;6.30;78.40
47338;DHT22;33069;51.970;5.892;2022-12-07T15:04:32;6.00;78.60
47338;DHT22;33069;51.970;5.892;2022-12-07T15:07:00;6.20;79.30
47338;DHT22;33069;51.970;5.892;2022-12-07T15:09:26;6.40;78.50
47338;DHT22;33069;51.970;5.892;2022-12-07T15:11:52;6.50;77.60
47338;DHT22;33069;51.970;5.892;2022-12-07T15:14:17;6.30;77.20
47338;DHT22;33069;51.970;5.892;2022-12-07T15:16:43;6.20;77.60
47338;DHT22;33069;51.970;5.892;2022-12-07T15:19:17;6.00;79.20
47338;DHT22;33069;51.970;5.892;2022-12-07T15:21:43;5.90;79.10
47338;DHT22;33069;51.970;5.892;2022-12-07T15:24:10;6.00;79.40
47338;DHT22;33069;51.970;5.892;2022-12-07T15:26:37;5.90;78.30
47338;DHT22;33069;51.970;5.892;2022-12-07T15:29:03;6.00;79.50
47338;DHT22;33069;51.970;5.892;2022-12-07T15:34:33;5.70;79.60
47338;DHT22;33069;51.970;5.892;2022-12-07T15:36:59;5.80;79.70
47338;DHT22;33069;51.970;5.892;2022-12-07T15:39:25;5.70;79.40
47338;DHT22;33069;51.970;5.892;2022-12-07T15:41:50;5.40;80.40
47338;DHT22;33069;51.970;5.892;2022-12-07T15:44:16;5.80;80.90
47338;DHT22;33069;51.970;5.892;2022-12-07T15:47:01;5.80;80.10
47338;DHT22;33069;51.970;5.892;2022-12-07T15:49:27;5.90;80.70
47338;DHT22;33069;51.970;5.892;2022-12-07T15:51:53;6.00;79.80
47338;DHT22;33069;51.970;5.892;2022-12-07T15:54:23;5.90;79.50
47338;DHT22;33069;51.970;5.892;2022-12-07T15:56:49;6.00;79.50
47338;DHT22;33069;51.970;5.892;2022-12-07T15:59:15;6.00;79.60
47338;DHT22;33069;51.970;5.892;2022-12-07T16:01:41;5.70;80.10
47338;DHT22;33069;51.970;5.892;2022-12-07T16:04:07;5.80;80.60
47338;DHT22;33069;51.970;5.892;2022-12-07T16:06:33;5.70;79.60
47338;DHT22;33069;51.970;5.892;2022-12-07T16:08:58;5.70;80.90
47338;DHT22;33069;51.970;5.892;2022-12-07T16:11:24;5.90;80.40
47338;DHT22;33069;51.970;5.892;2022-12-07T16:13:50;5.70;80.00
47338;DHT22;33069;51.970;5.892;2022-12-07T16:16:34;5.50;80.80
47338;DHT22;33069;51.970;5.892;2022-12-07T16:22:29;5.70;81.00
47338;DHT22;33069;51.970;5.892;2022-12-07T16:27:31;5.60;81.70
47338;DHT22;33069;51.970;5.892;2022-12-07T16:29:56;5.40;81.20
47338;DHT22;33069;51.970;5.892;2022-12-07T16:32:22;5.70;81.00
47338;DHT22;33069;51.970;5.892;2022-12-07T16:34:48;5.50;81.00
47338;DHT22;33069;51.970;5.892;2022-12-07T16:37:13;5.40;81.90
47338;DHT22;33069;51.970;5.892;2022-12-07T16:39:39;5.20;81.10
47338;DHT22;33069;51.970;5.892;2022-12-07T16:42:05;5.30;81.30
47338;DHT22;33069;51.970;5.892;2022-12-07T16:44:31;5.30;80.50
47338;DHT22;33069;51.970;5.892;2022-12-07T16:46:56;5.00;81.10
47338;DHT22;33069;51.970;5.892;2022-12-07T16:49:22;4.90;82.10
47338;DHT22;33069;51.970;5.892;2022-12-07T16:51:50;5.10;82.70
47338;DHT22;33069;51.970;5.892;2022-12-07T16:54:16;5.10;82.20
47338;DHT22;33069;51.970;5.892;2022-12-07T16:56:41;5.10;82.30
47338;DHT22;33069;51.970;5.892;2022-12-07T16:59:07;5.30;81.50
47338;DHT22;33069;51.970;5.892;2022-12-07T17:01:33;5.30;80.80
47338;DHT22;33069;51.970;5.892;2022-12-07T17:04:00;5.50;81.00
47338;DHT22;33069;51.970;5.892;2022-12-07T17:06:27;5.30;81.40
47338;DHT22;33069;51.970;5.892;2022-12-07T17:08:53;5.10;81.10
47338;DHT22;33069;51.970;5.892;2022-12-07T17:11:25;5.00;80.80
47338;DHT22;33069;51.970;5.892;2022-12-07T17:13:51;4.80;82.10
47338;DHT22;33069;51.970;5.892;2022-12-07T17:16:36;4.90;82.50
47338;DHT22;33069;51.970;5.892;2022-12-07T17:19:07;4.70;82.60
47338;DHT22;33069;51.970;5.892;2022-12-07T17:21:33;4.70;82.50
47338;DHT22;33069;51.970;5.892;2022-12-07T17:24:00;5.00;82.80
47338;DHT22;33069;51.970;5.892;2022-12-07T17:26:27;4.90;81.30
47338;DHT22;33069;51.970;5.892;2022-12-07T17:28:53;4.90;82.10
47338;DHT22;33069;51.970;5.892;2022-12-07T17:31:21;4.90;82.70
47338;DHT22;33069;51.970;5.892;2022-12-07T17:33:48;4.70;82.80
47338;DHT22;33069;51.970;5.892;2022-12-07T17:36:22;5.00;82.50
47338;DHT22;33069;51.970;5.892;2022-12-07T17:38:49;5.10;81.70
47338;DHT22;33069;51.970;5.892;2022-12-07T17:41:20;5.20;82.00
47338;DHT22;33069;51.970;5.892;2022-12-07T17:44:11;5.00;81.60
47338;DHT22;33069;51.970;5.892;2022-12-07T17:46:38;5.00;82.10
47338;DHT22;33069;51.970;5.892;2022-12-07T17:49:05;4.80;81.90
47338;DHT22;33069;51.970;5.892;2022-12-07T17:51:31;5.10;82.60
47338;DHT22;33069;51.970;5.892;2022-12-07T17:54:16;4.80;82.20
47338;DHT22;33069;51.970;5.892;2022-12-07T17:56:43;4.80;83.00
47338;DHT22;33069;51.970;5.892;2022-12-07T17:59:09;4.70;82.80
47338;DHT22;33069;51.970;5.892;2022-12-07T18:01:35;4.60;83.00
47338;DHT22;33069;51.970;5.892;2022-12-07T18:04:01;4.70;83.80
47338;DHT22;33069;51.970;5.892;2022-12-07T18:06:27;4.90;83.60
47338;DHT22;33069;51.970;5.892;2022-12-07T18:08:53;4.70;83.30
47338;DHT22;33069;51.970;5.892;2022-12-07T18:11:18;4.50;83.40
47338;DHT22;33069;51.970;5.892;2022-12-07T18:13:44;4.50;84.30
47338;DHT22;33069;51.970;5.892;2022-12-07T18:16:16;4.30;84.50
47338;DHT22;33069;51.970;5.892;2022-12-07T18:18:43;4.60;85.00
47338;DHT22;33069;51.970;5.892;2022-12-07T18:21:15;4.30;84.40
47338;DHT22;33069;51.970;5.892;2022-12-07T18:23:46;4.60;84.90
47338;DHT22;33069;51.970;5.892;2022-12-07T18:26:13;4.70;84.30
47338;DHT22;33069;51.970;5.892;2022-12-07T18:28:40;4.60;84.00
47338;DHT22;33069;51.970;5.892;2022-12-07T18:31:06;4.60;84.30
47338;DHT22;33069;51.970;5.892;2022-12-07T18:33:31;4.60;84.20
47338;DHT22;33069;51.970;5.892;2022-12-07T18:35:59;4.70;84.00
47338;DHT22;33069;51.970;5.892;2022-12-07T18:38:26;4.80;83.70
47338;DHT22;33069;51.970;5.892;2022-12-07T18:40:52;5.00;83.00
47338;DHT22;33069;51.970;5.892;2022-12-07T18:43:18;4.80;83.40
47338;DHT22;33069;51.970;5.892;2022-12-07T18:45:44;4.90;83.40
47338;DHT22;33069;51.970;5.892;2022-12-07T18:48:15;4.80;82.90
47338;DHT22;33069;51.970;5.892;2022-12-07T18:50:42;4.60;83.40
47338;DHT22;33069;51.970;5.892;2022-12-07T18:53:08;4.50;83.90